Morrisville, VT

11:06 PM EDT on September 23, 2014 (GMT -0400)
Burlington International | Change Station
CLOSE
Current Station
Airport
Location: Burlington,
Elevation: 341 ft
Nearby Weather Stations

Elev 341 ft 44.47 °N, 73.15 °W | Updated 12 minutes ago

Mostly Cloudy
Mostly Cloudy
54 °F
Feels Like 54 °F
N
0
Wind Variable Wind from North

Today
High -- | Low -- °F
--% Chance of Precip.
Yesterday
High -- | Low -- °F
Precip. -- in
6:38 AM 6:46 PM
Waning Crescent, 0% visible
Pressure 30.42 in
Visibility 10.0 miles
Clouds Mostly Cloudy 6000 ft
Dew Point 51 °F
Humidity 90%
Rainfall 0.00 in
Snow Depth Not available.
UV 0 out of 12
Pollen 2.00 out of 12
PM2.5 Good
Flu Activity Not available.
METAR KBTV 240254Z 00000KT 10SM BKN060 12/11 A3042 RMK AO2 SLP301 T01220106 51021

More Conditions Fewer Conditions

Pressure 30.42 in
Visibility 10.0 miles
Clouds Mostly Cloudy 6000 ft
Dew Point 51 °F
Humidity 90%
Rainfall 0.00 in
Snow Depth Not available.
UV 0 out of 12
Pollen 2.00 out of 12
PM2.5 Good
Flu Activity Not available.
METAR KBTV 240254Z 00000KT 10SM BKN060 12/11 A3042 RMK AO2 SLP301 T01220106 51021

More Conditions Fewer Conditions

10-Day Weather Forecast

Almanac

Astronomy

Sep. 23, 2014 Rise Set
Actual Time 6:38 AM EDT 6:46 PM EDT
Civil Twilight 6:09 AM EDT 7:15 PM EDT
Nautical Twilight 5:35 AM EDT 7:49 PM EDT
Astronomical Twilight 5:00 AM EDT 8:23 PM EDT
Moon 5:59 AM EDT (9/23) 6:22 PM EDT (9/23)
Length of Visible Light 13h 05m
Length of Day
12h 07m
Tomorrow will be 3m 3s shorter.
Waning Crescent, 0% of the Moon is Illuminated
Today
Waning Crescent
Sep 24
New
Oct 1
First Quarter
Oct 8
Full
Oct 15
Last Quarter

Today's Extremes

State Highs State Lows

Community

WunderPhotos

Upload Photos

1,755,870 photos uploaded!

WunderBlogs® & News

Nearby

Air Quality

  Air Quality AQ Index Pollutant
Yesterday Good
PM2.5
Current Good
PM2.5
Tuesday Good
PM2.5
Tuesday Good
OZONE
Wednesday Good
PM2.5
Wednesday Good
OZONE
Thursday Good
PM2.5
Thursday Good
OZONE

Snow Depth

Station Depth Elevation
No new snow has been reported.

Earthquake Activity

City Distance Mag. Time & Date
No recent earthquake activity has been reported nearby.
Minimum magnitude displayed is 2.5.

Coastal Water Temperatures

Place Temperature
No Stations Reporting

Nearby Weather Stations